createdAt,value
2023-03-04T00:04:22.758Z,100204.59
2023-03-04T00:09:45.862Z,100213.06
2023-03-04T00:15:08.345Z,100196.88
2023-03-04T00:20:30.190Z,100192.69
2023-03-04T00:25:52.062Z,100184.28
2023-03-04T00:31:13.912Z,100188.59
2023-03-04T00:36:35.792Z,100176.69
2023-03-04T00:41:57.689Z,100164.88
2023-03-04T00:47:19.622Z,100154.72
2023-03-04T00:52:41.622Z,100153.03
2023-03-04T00:58:03.737Z,100136.09
2023-03-04T01:03:25.745Z,100130.22
2023-03-04T01:08:47.791Z,100102.97
2023-03-04T01:14:10.003Z,100100.47
2023-03-04T01:19:31.856Z,100092.03
2023-03-04T01:24:53.730Z,100087.78
2023-03-04T01:30:15.621Z,100062.38
2023-03-04T01:35:37.546Z,100031.84
2023-03-04T01:40:59.486Z,100008.94
2023-03-04T01:46:21.529Z,100014.94
2023-03-04T01:51:46.767Z,99991.19
2023-03-04T01:57:26.261Z,99960.56
2023-03-04T02:02:51.737Z,99980.16
2023-03-04T02:08:15.185Z,99965.78
2023-03-04T02:13:37.239Z,99977.63
2023-03-04T02:18:59.740Z,99968.31
2023-03-04T02:24:32.685Z,99957.31
2023-03-04T02:29:54.789Z,99974.25
2023-03-04T02:35:18.819Z,99987.81
2023-03-04T02:40:46.124Z,99966.63
2023-03-04T02:46:12.551Z,99969.19
2023-03-04T02:51:34.336Z,99966.63
2023-03-04T02:56:59.687Z,99945.50
2023-03-04T03:02:21.552Z,99942.97
2023-03-04T03:07:43.501Z,99943.81
2023-03-04T03:13:05.397Z,99926.00
2023-03-04T03:18:27.244Z,99951.44
2023-03-04T03:23:49.556Z,99940.41
2023-03-04T03:29:11.577Z,99915.84
2023-03-04T03:34:33.407Z,99928.56
2023-03-04T03:39:55.291Z,99910.78
2023-03-04T03:45:17.209Z,99909.91
2023-03-04T03:50:39.092Z,99914.16
2023-03-04T03:56:00.979Z,99910.75
2023-03-04T04:01:22.858Z,99898.00
2023-03-04T04:06:44.767Z,99896.34
2023-03-04T04:12:07.297Z,99893.78
2023-03-04T04:17:29.137Z,99898.84
2023-03-04T04:22:51.024Z,99882.75
2023-03-04T04:28:12.957Z,99880.19
2023-03-04T04:33:35.631Z,99876.75
2023-03-04T04:38:57.582Z,99892.03
2023-03-04T04:44:19.446Z,99879.31
2023-03-04T04:49:41.292Z,99876.72
2023-03-04T04:55:03.892Z,99859.78
2023-03-04T05:00:25.883Z,99866.56
2023-03-04T05:05:48.674Z,99851.31
2023-03-04T05:11:10.565Z,99854.66
2023-03-04T05:16:32.468Z,99853.00
2023-03-04T05:21:54.415Z,99843.69
2023-03-04T05:27:16.253Z,99843.63
2023-03-04T05:32:38.291Z,99835.19
2023-03-04T05:38:00.130Z,99836.88
2023-03-04T05:43:22.032Z,99836.00
2023-03-04T05:48:44.785Z,99844.47
2023-03-04T05:54:06.627Z,99835.13
2023-03-04T05:59:28.795Z,99827.47
2023-03-04T06:04:50.685Z,99812.22
2023-03-04T06:10:15.156Z,99810.56
2023-03-04T06:15:37.966Z,99799.50
2023-03-04T06:21:02.284Z,99802.00
2023-03-04T06:26:24.123Z,99789.28
2023-03-04T06:31:46.067Z,99790.13
2023-03-04T06:37:07.904Z,99785.84
2023-03-04T06:42:29.831Z,99802.78
2023-03-04T06:47:51.677Z,99803.59
2023-03-04T06:53:13.538Z,99802.84
2023-03-04T06:58:35.472Z,99803.63
2023-03-04T07:03:57.892Z,99789.22
2023-03-04T07:09:19.949Z,99798.66
2023-03-04T07:14:41.915Z,99804.47
2023-03-04T07:20:05.136Z,99788.22
2023-03-04T07:25:27.051Z,99783.97
2023-03-04T07:30:48.949Z,99791.63
2023-03-04T07:36:10.840Z,99787.38
2023-03-04T07:41:33.154Z,99783.16
2023-03-04T07:46:55.008Z,99781.44
2023-03-04T07:52:17.014Z,99777.06
2023-03-04T07:57:40.001Z,99745.72
2023-03-04T08:03:01.887Z,99753.16
2023-03-04T08:08:23.818Z,99741.28
2023-03-04T08:13:46.351Z,99754.84
2023-03-04T08:19:08.661Z,99748.13
2023-03-04T08:24:30.538Z,99752.22
2023-03-04T08:29:52.439Z,99748.72
2023-03-04T08:35:14.324Z,99746.09
2023-03-04T08:40:36.144Z,99732.75
2023-03-04T08:45:58.206Z,99735.19
2023-03-04T08:51:20.363Z,99745.44
2023-03-04T08:56:42.289Z,99746.16
2023-03-04T09:02:04.281Z,99738.38
2023-03-04T09:07:26.199Z,99727.47
2023-03-04T09:12:48.042Z,99736.28
2023-03-04T09:18:09.939Z,99698.94
2023-03-04T09:23:31.822Z,99700.34
2023-03-04T09:28:59.194Z,99714.56
2023-03-04T09:34:21.021Z,99728.06
2023-03-04T09:39:42.832Z,99701.31
2023-03-04T09:45:08.318Z,99704.69
2023-03-04T09:50:34.328Z,99709.97
2023-03-04T09:55:56.377Z,99702.00
2023-03-04T10:01:31.254Z,99691.16
2023-03-04T10:06:53.414Z,99692.78
2023-03-04T10:12:20.429Z,99686.72
2023-03-04T10:17:46.995Z,99681.06
2023-03-04T10:23:11.612Z,99674.16
2023-03-04T10:28:35.384Z,99672.03
2023-03-04T10:33:57.286Z,99666.09
2023-03-04T10:39:22.975Z,99649.56
2023-03-04T10:44:53.681Z,99610.50
2023-03-04T10:50:28.356Z,99649.94
2023-03-04T10:55:50.326Z,99626.28
2023-03-04T11:01:16.132Z,99632.63
2023-03-04T11:06:41.074Z,99637.84
2023-03-04T11:12:09.722Z,99616.53
2023-03-04T11:17:47.170Z,99632.28
2023-03-04T11:28:39.708Z,99618.63
2023-03-04T11:34:07.932Z,99622.94
2023-03-04T11:39:35.859Z,99601.78
2023-03-04T11:44:57.792Z,99605.63
2023-03-04T11:50:31.625Z,99603.50
2023-03-04T11:56:05.424Z,99602.91
2023-03-04T12:01:37.938Z,99584.19
2023-03-04T12:07:03.719Z,99603.38
2023-03-04T12:12:33.183Z,99596.63
2023-03-04T12:17:58.185Z,99591.38
2023-03-04T12:23:28.916Z,99613.31
2023-03-04T12:28:55.762Z,99587.22
2023-03-04T12:34:33.203Z,99610.25
2023-03-04T12:40:00.809Z,99603.19
2023-03-04T12:45:32.842Z,99571.34
2023-03-04T12:50:57.715Z,99576.00
2023-03-04T12:56:39.459Z,99589.47
2023-03-04T13:02:29.681Z,99575.56
2023-03-04T13:08:13.084Z,99563.06
2023-03-04T13:13:41.474Z,99564.66
2023-03-04T13:19:03.393Z,99571.09
2023-03-04T13:24:45.068Z,99568.63
2023-03-04T13:30:32.428Z,99575.13
2023-03-04T13:35:57.250Z,99561.28
2023-03-04T13:41:23.957Z,99615.03
2023-03-04T13:46:45.998Z,99635.53
2023-03-04T13:52:42.466Z,99609.00
2023-03-04T13:58:26.654Z,99592.28
2023-03-04T14:03:48.674Z,99555.56
2023-03-04T14:09:20.030Z,99557.59
2023-03-04T14:14:44.469Z,99579.19
2023-03-04T14:20:41.855Z,99583.28
2023-03-04T14:26:18.331Z,99558.00
2023-03-04T14:31:40.263Z,99561.31
2023-03-04T14:37:03.581Z,99579.06
2023-03-04T14:42:36.099Z,99570.47
2023-03-04T14:48:04.905Z,99591.22
2023-03-04T14:53:29.864Z,99590.16
2023-03-04T14:58:54.937Z,99608.97
2023-03-04T15:04:19.584Z,99597.81
2023-03-04T15:09:41.917Z,99604.66
2023-03-04T15:15:50.214Z,99608.84
2023-03-04T15:21:21.158Z,99619.25
2023-03-04T15:26:44.019Z,99619.53
2023-03-04T15:32:05.918Z,99642.31
2023-03-04T15:37:29.377Z,99690.84
2023-03-04T15:42:51.560Z,99705.00
2023-03-04T15:48:15.706Z,99739.06
2023-03-04T15:53:40.664Z,99710.41
2023-03-04T15:59:14.516Z,99746.13
2023-03-04T16:04:36.355Z,99780.88
2023-03-04T16:10:05.150Z,99781.81
2023-03-04T16:15:29.347Z,99768.28
2023-03-04T16:20:51.535Z,99766.66
2023-03-04T16:26:16.248Z,99800.59
2023-03-04T16:31:38.294Z,99823.47
2023-03-04T16:37:06.732Z,99830.25
2023-03-04T16:42:28.640Z,99846.34
2023-03-04T16:47:51.262Z,99826.88
2023-03-04T16:53:24.977Z,99847.19
2023-03-04T16:58:47.058Z,99855.63
2023-03-04T17:04:08.900Z,99861.53
2023-03-04T17:09:30.778Z,99881.00
2023-03-04T17:14:52.715Z,99900.50
2023-03-04T17:20:17.695Z,99901.31
2023-03-04T17:25:39.857Z,99923.34
2023-03-04T17:31:01.934Z,99913.16
2023-03-04T17:36:23.822Z,99930.94
2023-03-04T17:41:45.745Z,99933.44
2023-03-04T17:47:08.220Z,99907.94
2023-03-04T17:52:30.045Z,99904.53
2023-03-04T17:57:51.848Z,99943.47
2023-03-04T18:03:14.251Z,99924.78
2023-03-04T18:08:36.068Z,99956.75
2023-03-04T18:13:57.947Z,99965.19
2023-03-04T18:19:19.829Z,99962.69
2023-03-04T18:24:41.666Z,99977.81
2023-03-04T18:30:03.794Z,99962.56
2023-03-04T18:35:26.115Z,99991.31
2023-03-04T18:40:47.984Z,100000.59
2023-03-04T18:46:18.638Z,100000.63
2023-03-04T18:51:40.542Z,100009.09
2023-03-04T18:57:09.356Z,99978.47
2023-03-04T19:02:43.186Z,100006.47
2023-03-04T19:08:05.038Z,99998.81
2023-03-04T19:13:29.490Z,99996.19
2023-03-04T19:18:52.756Z,100018.13
2023-03-04T19:24:14.633Z,100026.47
2023-03-04T19:29:36.581Z,100025.56
2023-03-04T19:34:58.415Z,100011.03
2023-03-04T19:40:20.794Z,100035.59
2023-03-04T19:45:42.661Z,100040.47
2023-03-04T19:51:13.136Z,100059.84
2023-03-04T19:56:35.020Z,100036.00
2023-03-04T20:01:56.825Z,100056.28
2023-03-04T20:07:18.635Z,100042.66
2023-03-04T20:12:40.481Z,100040.81
2023-03-04T20:18:04.729Z,100064.53
2023-03-04T20:23:29.183Z,100062.72
2023-03-04T20:28:51.538Z,100067.75
2023-03-04T20:34:14.207Z,100055.94
2023-03-04T20:39:36.079Z,100063.53
2023-03-04T20:44:57.947Z,100076.09
2023-03-04T20:50:19.906Z,100068.47
2023-03-04T20:55:41.707Z,100071.03
2023-03-04T21:01:03.669Z,100069.25
2023-03-04T21:06:25.849Z,100069.25
2023-03-04T21:11:48.382Z,100054.84
2023-03-04T21:17:10.935Z,100063.31
2023-03-04T21:22:32.794Z,100044.59
2023-03-04T21:27:54.660Z,100044.47
2023-03-04T21:33:18.510Z,100072.47
2023-03-04T21:38:42.192Z,100074.97
2023-03-04T21:44:04.095Z,100071.56
2023-03-04T21:49:26.489Z,100075.84
2023-03-04T21:54:48.684Z,100077.44
2023-03-04T22:00:11.238Z,100072.31
2023-03-04T22:05:33.140Z,100073.97
2023-03-04T22:10:55.033Z,100068.00
2023-03-04T22:16:16.891Z,100063.53
2023-03-04T22:21:38.754Z,100070.44
2023-03-04T22:27:00.893Z,100059.38
2023-03-04T22:32:22.760Z,100068.56
2023-03-04T22:37:45.250Z,100052.34
2023-03-04T22:43:07.165Z,100063.56
2023-03-04T22:48:29.100Z,100068.56
2023-03-04T22:53:51.331Z,100061.78
2023-03-04T22:59:13.766Z,100061.75
2023-03-04T23:04:35.655Z,100056.59
2023-03-04T23:09:57.536Z,100071.00
2023-03-04T23:15:19.972Z,100063.53
2023-03-04T23:20:41.838Z,100069.44
2023-03-04T23:26:04.445Z,100061.88
2023-03-04T23:31:26.357Z,100046.47
2023-03-04T23:36:48.226Z,100060.81
2023-03-04T23:42:10.099Z,100039.63
2023-03-04T23:47:31.953Z,100057.50
2023-03-04T23:52:53.794Z,100061.88
2023-03-04T23:58:15.819Z,100057.53
